Terminal Aerodrome Forecast
Issued by NWS

Home | Current Version | Previous Version | Text Only | Print | Product List | Glossary On
Versions: 1 2 3 4 5 6 7 8 9 10 11 12 13 14 15 16
000
FTUS46 KEKA 251900 AAA
TAFCEC
TAF AMD
KCEC 251907Z 2519/2618 33012G20KT P6SM SKC
     FM260300 34008KT P6SM SKC
     FM260600 17009KT 6SM BR SKC
     FM261000 VRB03KT 1SM BR BKN003
     FM261700 28006KT 4SM BR BKN004=

USA.gov is the U.S. government's official web portal to all federal, state and local government web resources and services.